KRPJ

Rochelle Municipal-Koritz Field Airport

Rochelle, Illinois, USA
METAR KRPJ 151555Z AUTO 04006KT 4SM BR CLR 01/00 A3020 RMK AO2 T00050000
Observed Flight Rules
Dec-15 @ 15:55 UTC (19 minutes ago) Marginal Visual Flight Rules
Wind Visibility Clouds Conditions
40° at 6 knots 4 miles
  • Clear skies
  • Mist
Temperatures Readings
Current 1°C / 34°F
Dewpoint 0°C / 32°F
Humidity 93%
Altimeter 30.2" Hg
Pressure 1023 hPa
Elevation 238
METAR KRPJ 151555Z AUTO 04006KT 4SM BR CLR 01/00 A3020 RMK AO2 T00050000
Observed Flight Rules
Dec-15 @ 15:55 UTC
(19 minutes ago)
MVFR
Wind Visibility
40° at 6 knots 4 miles
Clouds
  • Clear skies
Conditions
  • Mist
Temperature Dewpoint
1°C / 34°F 0°C / 32°F
Humidity Altimeter Pressure
93% 30.2" Hg 1023 hPa